createdAt,value
2019-02-11T00:01:33.665Z,0.60
2019-02-11T00:04:03.337Z,0.40
2019-02-11T00:06:32.467Z,0.43
2019-02-11T00:09:01.600Z,1.02
2019-02-11T00:11:31.029Z,0.50
2019-02-11T00:14:00.250Z,0.50
2019-02-11T00:16:29.346Z,0.50
2019-02-11T00:18:58.184Z,0.50
2019-02-11T00:21:27.103Z,0.60
2019-02-11T00:23:55.951Z,0.60
2019-02-11T00:26:25.476Z,0.90
2019-02-11T00:28:54.533Z,0.80
2019-02-11T00:31:23.899Z,0.60
2019-02-11T00:33:53.712Z,1.12
2019-02-11T00:36:23.250Z,0.70
2019-02-11T00:38:52.058Z,0.60
2019-02-11T00:41:20.918Z,0.93
2019-02-11T00:43:49.845Z,0.50
2019-02-11T00:46:18.703Z,0.67
2019-02-11T00:48:48.000Z,0.90
2019-02-11T00:51:16.837Z,1.35
2019-02-11T00:53:47.661Z,0.93
2019-02-11T00:56:16.438Z,0.70
2019-02-11T00:58:45.382Z,1.37
2019-02-11T01:01:14.378Z,0.80
2019-02-11T01:03:43.518Z,0.70
2019-02-11T01:06:12.442Z,0.70
2019-02-11T01:08:41.334Z,0.70
2019-02-11T01:11:10.298Z,1.07
2019-02-11T01:13:39.613Z,0.88
2019-02-11T01:16:08.443Z,0.50
2019-02-11T01:18:37.712Z,0.70
2019-02-11T01:21:06.559Z,0.50
2019-02-11T01:23:35.571Z,0.80
2019-02-11T01:26:04.506Z,0.42
2019-02-11T01:28:33.614Z,0.45
2019-02-11T01:31:02.508Z,0.60
2019-02-11T01:33:31.790Z,0.40
2019-02-11T01:36:00.761Z,0.40
2019-02-11T01:38:29.584Z,0.40
2019-02-11T01:40:58.525Z,0.45
2019-02-11T01:43:35.781Z,0.40
2019-02-11T01:45:57.995Z,0.50
2019-02-11T01:48:27.190Z,1.82
2019-02-11T01:50:56.147Z,0.30
2019-02-11T01:53:25.318Z,0.60
2019-02-11T01:55:54.247Z,0.37
2019-02-11T01:58:23.376Z,0.30
2019-02-11T02:00:52.379Z,0.60
2019-02-11T02:03:21.313Z,0.40
2019-02-11T02:05:50.167Z,0.30
2019-02-11T02:08:19.440Z,0.47
2019-02-11T02:10:48.430Z,0.45
2019-02-11T02:13:17.515Z,0.30
2019-02-11T02:15:46.479Z,0.40
2019-02-11T02:18:15.284Z,0.40
2019-02-11T02:20:44.129Z,1.60
2019-02-11T02:23:12.997Z,2.72
2019-02-11T02:25:41.831Z,1.07
2019-02-11T02:28:10.779Z,0.47
2019-02-11T02:30:39.617Z,1.07
2019-02-11T02:33:08.527Z,0.40
2019-02-11T02:35:37.371Z,1.13
2019-02-11T02:38:06.302Z,0.95
2019-02-11T02:40:35.574Z,0.30
2019-02-11T02:43:04.597Z,1.47
2019-02-11T02:45:33.526Z,1.57
2019-02-11T02:48:02.374Z,0.90
2019-02-11T02:50:31.198Z,2.10
2019-02-11T02:53:00.225Z,1.15
2019-02-11T02:55:29.425Z,1.37
2019-02-11T02:57:58.221Z,1.80
2019-02-11T03:00:27.368Z,1.10
2019-02-11T03:02:56.978Z,0.90
2019-02-11T03:05:25.950Z,2.87
2019-02-11T03:07:54.795Z,1.50
2019-02-11T03:10:23.730Z,2.10
2019-02-11T03:12:52.955Z,1.40
2019-02-11T03:15:21.771Z,1.20
2019-02-11T03:17:50.591Z,2.95
2019-02-11T03:20:19.762Z,2.05
2019-02-11T03:22:48.602Z,2.20
2019-02-11T03:25:17.432Z,3.40
2019-02-11T03:27:46.432Z,2.20
2019-02-11T03:30:15.419Z,2.72
2019-02-11T03:32:44.671Z,3.40
2019-02-11T03:35:13.541Z,3.05
2019-02-11T03:37:42.691Z,4.78
2019-02-11T03:40:11.671Z,3.05
2019-02-11T03:42:41.191Z,4.97
2019-02-11T03:45:10.785Z,3.83
2019-02-11T03:47:39.687Z,3.42
2019-02-11T03:50:09.236Z,4.60
2019-02-11T03:52:38.306Z,4.30
2019-02-11T03:55:07.630Z,4.05
2019-02-11T03:57:36.679Z,4.45
2019-02-11T04:00:07.069Z,5.03
2019-02-11T04:02:36.052Z,2.02
2019-02-11T04:05:05.298Z,3.62
2019-02-11T04:07:34.388Z,3.52
2019-02-11T04:10:03.391Z,4.10
2019-02-11T04:12:32.611Z,3.30
2019-02-11T04:15:01.780Z,4.10
2019-02-11T04:17:30.883Z,2.33
2019-02-11T04:20:00.273Z,3.17
2019-02-11T04:22:29.113Z,4.57
2019-02-11T04:24:58.022Z,6.05
2019-02-11T04:27:26.989Z,6.27
2019-02-11T04:29:55.913Z,3.65
2019-02-11T04:32:24.867Z,8.20
2019-02-11T04:34:54.222Z,5.78
2019-02-11T04:37:23.228Z,6.83
2019-02-11T04:39:52.357Z,6.55
2019-02-11T04:42:21.325Z,6.03
2019-02-11T04:44:50.182Z,7.67
2019-02-11T04:47:19.079Z,6.30
2019-02-11T04:49:48.025Z,5.80
2019-02-11T04:52:17.051Z,6.20
2019-02-11T04:54:45.890Z,7.78
2019-02-11T04:57:15.100Z,10.03
2019-02-11T04:59:44.619Z,6.28
2019-02-11T05:02:13.534Z,8.23
2019-02-11T05:04:42.495Z,4.35
2019-02-11T05:07:12.005Z,8.75
2019-02-11T05:09:40.906Z,7.25
2019-02-11T05:12:09.847Z,5.90
2019-02-11T05:14:44.032Z,8.30
2019-02-11T05:17:09.919Z,6.57
2019-02-11T05:19:39.246Z,5.80
2019-02-11T05:22:08.286Z,6.03
2019-02-11T05:24:37.643Z,7.95
2019-02-11T05:27:06.587Z,7.70
2019-02-11T05:29:35.384Z,9.63
2019-02-11T05:32:04.685Z,5.00
2019-02-11T05:34:33.590Z,11.12
2019-02-11T05:37:02.519Z,7.33
2019-02-11T05:39:31.456Z,9.63
2019-02-11T05:42:00.392Z,6.37
2019-02-11T05:44:29.652Z,6.75
2019-02-11T05:46:58.611Z,9.97
2019-02-11T05:49:28.098Z,7.78
2019-02-11T05:51:57.310Z,7.20
2019-02-11T05:54:26.238Z,8.25
2019-02-11T05:56:55.375Z,6.60
2019-02-11T05:59:24.190Z,6.50
2019-02-11T06:01:53.408Z,6.60
2019-02-11T06:04:22.351Z,4.72
2019-02-11T06:06:51.149Z,8.87
2019-02-11T06:09:20.332Z,8.25
2019-02-11T06:11:49.144Z,8.63
2019-02-11T06:14:18.125Z,7.83
2019-02-11T06:16:47.250Z,5.20
2019-02-11T06:19:16.443Z,9.88
2019-02-11T06:21:45.697Z,10.50
2019-02-11T06:24:14.625Z,6.50
2019-02-11T06:26:43.448Z,7.75
2019-02-11T06:29:12.493Z,6.83
2019-02-11T06:31:41.294Z,6.37
2019-02-11T06:34:10.442Z,7.20
2019-02-11T06:36:39.363Z,4.60
2019-02-11T06:39:08.215Z,6.70
2019-02-11T06:41:37.178Z,7.53
2019-02-11T06:44:06.149Z,8.53
2019-02-11T06:46:34.989Z,6.07
2019-02-11T06:49:03.920Z,8.48
2019-02-11T06:51:32.971Z,8.23
2019-02-11T06:54:02.029Z,5.83
2019-02-11T06:56:31.484Z,8.57
2019-02-11T06:59:00.538Z,9.35
2019-02-11T07:01:29.462Z,8.43
2019-02-11T07:03:58.309Z,7.72
2019-02-11T07:06:27.622Z,6.13
2019-02-11T07:08:56.746Z,6.12
2019-02-11T07:11:25.967Z,8.40
2019-02-11T07:13:54.963Z,10.20
2019-02-11T07:16:23.958Z,6.77
2019-02-11T07:18:52.787Z,6.65
2019-02-11T07:21:21.752Z,7.10
2019-02-11T07:23:50.841Z,7.05
2019-02-11T07:26:19.779Z,10.70
2019-02-11T07:28:48.818Z,7.25
2019-02-11T07:31:17.718Z,7.30
2019-02-11T07:33:46.989Z,6.33
2019-02-11T07:36:17.959Z,7.17
2019-02-11T07:38:47.392Z,7.72
2019-02-11T07:41:16.249Z,7.47
2019-02-11T07:43:52.073Z,8.75
2019-02-11T07:46:28.354Z,6.10
2019-02-11T07:48:57.251Z,5.55
2019-02-11T07:51:26.409Z,7.30
2019-02-11T07:53:55.234Z,9.33
2019-02-11T07:56:24.062Z,9.27
2019-02-11T07:58:52.928Z,6.60
2019-02-11T08:01:21.743Z,5.60
2019-02-11T08:03:50.778Z,7.10
2019-02-11T08:06:19.793Z,7.45
2019-02-11T08:08:49.042Z,9.78
2019-02-11T08:11:18.358Z,8.83
2019-02-11T08:13:47.383Z,7.03
2019-02-11T08:16:16.571Z,9.47
2019-02-11T08:18:45.441Z,4.95
2019-02-11T08:21:14.468Z,6.03
2019-02-11T08:23:43.294Z,5.20
2019-02-11T08:26:12.552Z,8.67
2019-02-11T08:28:41.465Z,8.80
2019-02-11T08:31:10.495Z,5.28
2019-02-11T08:33:39.439Z,11.30
2019-02-11T08:36:08.686Z,9.58
2019-02-11T08:38:37.827Z,6.00
2019-02-11T08:41:07.141Z,6.70
2019-02-11T08:43:36.076Z,7.53
2019-02-11T08:46:05.514Z,7.73
2019-02-11T08:48:34.346Z,5.50
2019-02-11T08:51:03.334Z,6.30
2019-02-11T08:53:32.599Z,7.17
2019-02-11T08:56:03.419Z,6.87
2019-02-11T08:58:32.621Z,7.47
2019-02-11T09:01:01.995Z,8.00
2019-02-11T09:03:31.242Z,6.35
2019-02-11T09:06:00.194Z,8.07
2019-02-11T09:08:29.203Z,7.70
2019-02-11T09:10:58.431Z,7.27
2019-02-11T09:13:27.400Z,5.50
2019-02-11T09:15:56.467Z,6.53
2019-02-11T09:18:25.470Z,7.00
2019-02-11T09:20:54.476Z,5.72
2019-02-11T09:23:23.391Z,7.20
2019-02-11T09:25:52.572Z,7.73
2019-02-11T09:28:22.195Z,7.50
2019-02-11T09:30:51.609Z,6.80
2019-02-11T09:33:20.443Z,6.80
2019-02-11T09:35:49.607Z,6.83
2019-02-11T09:38:18.862Z,5.90
2019-02-11T09:40:48.043Z,7.30
2019-02-11T09:43:17.019Z,8.70
2019-02-11T09:45:46.217Z,5.20
2019-02-11T09:48:15.140Z,11.20
2019-02-11T09:50:46.682Z,9.00
2019-02-11T09:53:16.215Z,5.60
2019-02-11T09:55:45.908Z,7.27
2019-02-11T09:58:14.899Z,5.45
2019-02-11T10:00:43.972Z,4.80
2019-02-11T10:03:13.247Z,7.65
2019-02-11T10:05:42.588Z,6.47
2019-02-11T10:08:12.325Z,8.43
2019-02-11T10:10:41.216Z,4.90
2019-02-11T10:13:10.189Z,6.33
2019-02-11T10:15:39.561Z,7.30
2019-02-11T10:18:08.597Z,7.00
2019-02-11T10:20:37.992Z,5.90
2019-02-11T10:23:07.209Z,7.35
2019-02-11T10:25:36.109Z,9.17
2019-02-11T10:28:08.626Z,6.78
2019-02-11T10:30:37.925Z,6.03
2019-02-11T10:33:06.873Z,6.58
2019-02-11T10:35:42.088Z,7.07
2019-02-11T10:38:06.815Z,8.25
2019-02-11T10:40:35.947Z,7.37
2019-02-11T10:43:05.051Z,9.50
2019-02-11T10:45:36.680Z,8.77
2019-02-11T10:48:04.993Z,6.08
2019-02-11T10:50:33.984Z,9.63
2019-02-11T10:53:03.280Z,5.03
2019-02-11T10:55:32.459Z,4.90
2019-02-11T10:58:01.442Z,7.45
2019-02-11T11:00:30.593Z,5.80
2019-02-11T11:02:59.590Z,4.25
2019-02-11T11:05:29.211Z,6.50
2019-02-11T11:07:58.386Z,6.42
2019-02-11T11:10:32.331Z,8.97
2019-02-11T11:13:01.286Z,7.08
2019-02-11T11:15:30.331Z,7.27
2019-02-11T11:17:59.586Z,5.67
2019-02-11T11:20:28.695Z,4.67
2019-02-11T11:22:57.926Z,4.15
2019-02-11T11:25:26.864Z,5.37
2019-02-11T11:27:56.604Z,5.35
2019-02-11T11:30:25.912Z,4.20
2019-02-11T11:32:54.890Z,4.45
2019-02-11T11:35:24.048Z,5.12
2019-02-11T11:37:52.995Z,3.58
2019-02-11T11:40:22.028Z,5.17
2019-02-11T11:42:51.051Z,7.37
2019-02-11T11:45:20.177Z,8.30
2019-02-11T11:47:49.129Z,3.80
2019-02-11T11:50:18.363Z,5.40
2019-02-11T11:52:47.370Z,4.15
2019-02-11T11:55:17.234Z,5.00
2019-02-11T11:57:46.271Z,5.95
2019-02-11T12:00:18.025Z,11.05
2019-02-11T12:03:00.219Z,5.05
2019-02-11T12:05:17.807Z,4.87
2019-02-11T12:07:46.747Z,5.08
2019-02-11T12:10:15.754Z,6.10
2019-02-11T12:12:44.719Z,3.08
2019-02-11T12:15:14.317Z,7.65
2019-02-11T12:17:43.759Z,3.90
2019-02-11T12:20:12.921Z,4.42
2019-02-11T12:22:41.969Z,3.65
2019-02-11T12:25:12.299Z,7.95
2019-02-11T12:27:41.833Z,9.78
2019-02-11T12:30:13.863Z,5.40
2019-02-11T12:32:42.844Z,4.78
2019-02-11T12:35:12.553Z,4.12
2019-02-11T12:37:41.378Z,4.60
2019-02-11T12:40:10.944Z,8.90
2019-02-11T12:42:40.341Z,4.17
2019-02-11T12:45:11.955Z,6.80
2019-02-11T12:47:41.037Z,5.55
2019-02-11T12:50:10.896Z,5.65
2019-02-11T12:52:40.159Z,5.00
2019-02-11T12:55:10.291Z,4.53
2019-02-11T12:57:39.316Z,7.10
2019-02-11T13:00:11.480Z,7.78
2019-02-11T13:02:40.517Z,5.60
2019-02-11T13:05:10.375Z,5.87
2019-02-11T13:07:39.370Z,8.38
2019-02-11T13:10:09.487Z,6.22
2019-02-11T13:12:39.563Z,4.33
2019-02-11T13:15:09.484Z,5.03
2019-02-11T13:17:38.558Z,5.12
2019-02-11T13:20:11.197Z,4.17
2019-02-11T13:22:39.565Z,4.12
2019-02-11T13:25:11.161Z,4.15
2019-02-11T13:27:40.100Z,3.00
2019-02-11T13:30:12.087Z,4.20
2019-02-11T13:32:41.363Z,3.85
2019-02-11T13:35:10.430Z,2.00
2019-02-11T13:37:39.854Z,3.65
2019-02-11T13:40:09.571Z,2.98
2019-02-11T13:42:38.599Z,2.25
2019-02-11T13:45:11.807Z,2.52
2019-02-11T13:47:53.693Z,3.15
2019-02-11T13:50:14.405Z,2.40
2019-02-11T13:52:43.518Z,4.22
2019-02-11T13:55:12.482Z,3.42
2019-02-11T13:57:41.832Z,2.55
2019-02-11T14:00:19.260Z,4.92
2019-02-11T14:02:53.116Z,3.98
2019-02-11T14:05:22.852Z,5.05
2019-02-11T14:07:52.155Z,2.65
2019-02-11T14:10:21.266Z,3.25
2019-02-11T14:12:50.619Z,4.75
2019-02-11T14:15:20.901Z,3.77
2019-02-11T14:18:06.569Z,2.92
2019-02-11T14:20:23.310Z,3.52
2019-02-11T14:22:52.532Z,2.80
2019-02-11T14:25:40.994Z,2.72
2019-02-11T14:27:52.893Z,1.77
2019-02-11T14:30:22.288Z,2.92
2019-02-11T14:32:52.410Z,4.42
2019-02-11T14:35:21.343Z,5.95
2019-02-11T14:37:50.354Z,4.97
2019-02-11T14:40:19.366Z,3.60
2019-02-11T14:42:48.336Z,4.15
2019-02-11T14:45:17.456Z,3.50
2019-02-11T14:47:46.468Z,3.17
2019-02-11T14:50:15.502Z,3.58
2019-02-11T14:52:44.380Z,3.33
2019-02-11T14:55:13.513Z,3.55
2019-02-11T14:57:42.443Z,3.22
2019-02-11T15:00:16.918Z,1.45
2019-02-11T15:02:45.905Z,4.40
2019-02-11T15:05:14.927Z,2.67
2019-02-11T15:07:43.972Z,1.72
2019-02-11T15:10:13.133Z,2.27
2019-02-11T15:12:42.449Z,2.65
2019-02-11T15:15:11.598Z,3.20
2019-02-11T15:17:41.156Z,2.08
2019-02-11T15:20:12.091Z,4.87
2019-02-11T15:22:41.063Z,2.90
2019-02-11T15:25:12.517Z,1.75
2019-02-11T15:27:41.482Z,1.85
2019-02-11T15:30:12.694Z,3.47
2019-02-11T15:32:41.702Z,2.17
2019-02-11T15:35:11.064Z,2.65
2019-02-11T15:37:40.319Z,3.00
2019-02-11T15:40:11.575Z,2.27
2019-02-11T15:42:41.252Z,1.77
2019-02-11T15:45:11.685Z,2.40
2019-02-11T15:47:40.597Z,2.17
2019-02-11T15:50:11.189Z,2.37
2019-02-11T15:52:40.556Z,2.27
2019-02-11T15:55:11.722Z,4.35
2019-02-11T15:57:40.899Z,1.95
2019-02-11T16:00:12.730Z,1.45
2019-02-11T16:02:41.723Z,2.62
2019-02-11T16:05:15.868Z,2.83
2019-02-11T16:07:41.630Z,2.12
2019-02-11T16:10:12.581Z,3.20
2019-02-11T16:30:44.322Z,5.40
2019-02-11T16:33:13.726Z,4.80
2019-02-11T16:35:43.056Z,3.80
2019-02-11T16:38:12.541Z,3.37
2019-02-11T16:40:42.180Z,3.10
2019-02-11T16:43:11.251Z,2.98
2019-02-11T16:45:40.618Z,3.87
2019-02-11T16:48:10.037Z,5.33
2019-02-11T16:50:39.087Z,4.47
2019-02-11T16:53:08.510Z,6.17
2019-02-11T16:55:37.722Z,5.80
2019-02-11T16:58:06.697Z,4.95
2019-02-11T17:00:35.715Z,8.13
2019-02-11T17:03:04.795Z,5.80
2019-02-11T17:05:33.831Z,5.50
2019-02-11T17:08:03.208Z,6.92
2019-02-11T17:10:32.227Z,3.27
2019-02-11T17:13:01.279Z,3.95
2019-02-11T17:15:30.390Z,2.53
2019-02-11T17:17:59.513Z,4.08
2019-02-11T17:20:28.531Z,8.23
2019-02-11T17:22:57.669Z,9.93
2019-02-11T17:25:27.046Z,7.55
2019-02-11T17:27:56.081Z,4.87
2019-02-11T17:30:26.375Z,7.83
2019-02-11T17:32:55.700Z,6.30
2019-02-11T17:35:24.760Z,4.03
2019-02-11T17:37:54.401Z,6.12
2019-02-11T17:40:23.729Z,5.30
2019-02-11T17:42:52.764Z,5.72
2019-02-11T17:45:23.895Z,5.60
2019-02-11T17:47:53.370Z,4.90
2019-02-11T17:50:22.455Z,3.70
2019-02-11T17:52:52.541Z,5.85
2019-02-11T17:55:21.556Z,4.65
2019-02-11T17:57:50.909Z,3.85
2019-02-11T18:00:26.286Z,6.40
2019-02-11T18:02:55.720Z,4.65
2019-02-11T18:05:24.893Z,7.05
2019-02-11T18:07:53.906Z,5.67
2019-02-11T18:10:22.964Z,8.68
2019-02-11T18:12:52.338Z,7.20
2019-02-11T18:15:21.499Z,5.78
2019-02-11T18:17:50.436Z,8.85
2019-02-11T18:20:19.510Z,5.72
2019-02-11T18:22:48.925Z,7.45
2019-02-11T18:25:18.292Z,5.42
2019-02-11T18:27:47.681Z,5.58
2019-02-11T18:30:17.326Z,7.53
2019-02-11T18:32:46.378Z,7.03
2019-02-11T18:35:15.531Z,7.60
2019-02-11T18:37:44.591Z,4.90
2019-02-11T18:40:13.857Z,7.05
2019-02-11T18:42:42.896Z,7.45
2019-02-11T18:45:13.504Z,5.78
2019-02-11T18:47:42.843Z,9.05
2019-02-11T18:50:12.719Z,6.00
2019-02-11T18:52:41.769Z,3.85
2019-02-11T18:55:11.608Z,4.70
2019-02-11T18:57:40.668Z,5.90
2019-02-11T19:00:11.335Z,6.47
2019-02-11T19:02:40.456Z,6.92
2019-02-11T19:05:09.890Z,5.30
2019-02-11T19:07:38.930Z,9.48
2019-02-11T19:10:09.272Z,7.35
2019-02-11T19:12:38.317Z,8.65
2019-02-11T19:15:09.828Z,5.47
2019-02-11T19:17:38.886Z,8.33
2019-02-11T19:20:09.131Z,6.78
2019-02-11T19:22:38.136Z,5.72
2019-02-11T19:25:08.762Z,5.15
2019-02-11T19:27:37.866Z,8.68
2019-02-11T19:30:10.033Z,10.90
2019-02-11T19:32:39.424Z,5.35
2019-02-11T19:35:08.675Z,6.42
2019-02-11T19:37:37.993Z,6.42
2019-02-11T19:40:08.236Z,6.65
2019-02-11T19:42:37.196Z,4.80
2019-02-11T19:45:06.425Z,5.28
2019-02-11T19:47:35.543Z,4.12
2019-02-11T19:50:05.233Z,3.05
2019-02-11T19:52:34.545Z,5.47
2019-02-11T19:55:03.679Z,7.40
2019-02-11T19:57:32.745Z,6.87
2019-02-11T20:00:02.148Z,4.87
2019-02-11T20:02:31.159Z,4.93
2019-02-11T20:05:00.221Z,5.28
2019-02-11T20:07:29.540Z,6.77
2019-02-11T20:09:58.608Z,3.65
2019-02-11T20:12:27.705Z,4.15
2019-02-11T20:14:56.725Z,8.20
2019-02-11T20:17:25.992Z,4.30
2019-02-11T20:20:00.295Z,5.08
2019-02-11T20:22:26.308Z,5.03
2019-02-11T20:24:55.270Z,6.90
2019-02-11T20:27:24.252Z,4.40
2019-02-11T20:29:53.601Z,5.53
2019-02-11T20:32:22.644Z,4.28
2019-02-11T20:34:51.633Z,9.08
2019-02-11T20:37:20.703Z,3.20
2019-02-11T20:39:49.833Z,4.97
2019-02-11T20:42:19.440Z,4.80
2019-02-11T20:44:48.467Z,7.65
2019-02-11T20:47:17.868Z,4.62
2019-02-11T20:49:46.888Z,6.97
2019-02-11T20:52:16.326Z,4.80
2019-02-11T20:54:45.423Z,8.23
2019-02-11T20:57:14.390Z,7.20
2019-02-11T20:59:43.472Z,4.33
2019-02-11T21:02:12.620Z,4.95
2019-02-11T21:04:41.771Z,2.77
2019-02-11T21:07:10.756Z,5.00
2019-02-11T21:09:40.394Z,6.45
2019-02-11T21:12:09.464Z,5.27
2019-02-11T21:14:43.154Z,9.93
2019-02-11T21:17:12.204Z,6.67
2019-02-11T21:19:41.265Z,5.30
2019-02-11T21:22:10.384Z,5.30
2019-02-11T21:24:39.513Z,6.03
2019-02-11T21:27:08.636Z,6.80
2019-02-11T21:29:37.709Z,7.22
2019-02-11T21:32:06.773Z,5.33
2019-02-11T21:34:36.561Z,6.58
2019-02-11T21:37:05.655Z,8.53
2019-02-11T21:39:34.784Z,5.33
2019-02-11T21:42:04.194Z,6.60
2019-02-11T21:44:33.224Z,9.25
2019-02-11T21:47:02.468Z,5.47
2019-02-11T21:49:31.556Z,8.40
2019-02-11T21:52:00.584Z,6.90
2019-02-11T21:54:30.017Z,7.60
2019-02-11T21:56:59.386Z,6.77
2019-02-11T21:59:28.539Z,7.28
2019-02-11T22:01:57.651Z,4.67
2019-02-11T22:04:26.770Z,5.90
2019-02-11T22:06:56.568Z,8.20
2019-02-11T22:09:25.647Z,4.72
2019-02-11T22:11:54.697Z,7.72
2019-02-11T22:14:24.384Z,8.33
2019-02-11T22:16:53.450Z,6.97
2019-02-11T22:19:22.416Z,7.28
2019-02-11T22:21:51.766Z,6.97
2019-02-11T22:24:20.869Z,6.65
2019-02-11T22:26:49.825Z,6.30
2019-02-11T22:29:19.169Z,8.55
2019-02-11T22:31:48.360Z,9.47
2019-02-11T22:34:17.438Z,9.95
2019-02-11T22:36:46.471Z,7.20
2019-02-11T22:39:15.912Z,6.47
2019-02-11T22:41:45.555Z,9.50
2019-02-11T22:44:14.610Z,10.20
2019-02-11T22:46:43.748Z,7.00
2019-02-11T22:49:13.067Z,6.35
2019-02-11T22:51:42.957Z,8.90
2019-02-11T22:54:11.989Z,8.60
2019-02-11T22:56:40.911Z,7.73
2019-02-11T22:59:10.292Z,6.45
2019-02-11T23:01:39.438Z,7.10
2019-02-11T23:04:08.541Z,8.18
2019-02-11T23:06:37.544Z,7.87
2019-02-11T23:09:11.641Z,6.47
2019-02-11T23:11:40.720Z,7.78
2019-02-11T23:14:10.016Z,8.73
2019-02-11T23:16:39.456Z,6.57
2019-02-11T23:19:08.575Z,7.05
2019-02-11T23:21:37.680Z,6.03
2019-02-11T23:24:06.754Z,7.75
2019-02-11T23:26:36.085Z,5.58
2019-02-11T23:29:05.401Z,5.90
2019-02-11T23:31:34.705Z,9.33
2019-02-11T23:34:03.832Z,7.58
2019-02-11T23:36:33.140Z,10.43
2019-02-11T23:39:02.273Z,8.88
2019-02-11T23:41:31.307Z,8.73
2019-02-11T23:44:00.477Z,9.03
2019-02-11T23:46:29.433Z,6.72
2019-02-11T23:48:58.769Z,11.63
2019-02-11T23:51:27.821Z,8.03
2019-02-11T23:53:57.205Z,9.13
2019-02-11T23:56:26.180Z,6.77
2019-02-11T23:58:55.149Z,8.03
